Time;durP1;ratioP1;P1;durP2;ratioP2;P2;SDS_P1;SDS_P2;PMS_P1;PMS_P2;Temp;Humidity;BMP_temperature;BMP_pressure;BME280_temperature;BME280_humidity;BME280_pressure;Samples;Min_cycle;Max_cycle;Signal;HPM_P1;HPM_P2
2023/06/11 00:01:24;;;;;;;11.80;8.95;;;;;;;22.12;60.89;98713.28;4343572;33;34711;-84
2023/06/11 00:03:54;;;;;;;10.10;8.55;;;;;;;22.20;61.07;98716.50;4346055;33;33848;-84
2023/06/11 00:06:22;;;;;;;12.48;9.68;;;;;;;22.17;61.27;98716.62;4346076;33;34947;-85
2023/06/11 00:08:53;;;;;;;15.80;9.05;;;;;;;22.20;60.18;98713.87;4332561;33;33726;-86
2023/06/11 00:11:21;;;;;;;10.18;8.02;;;;;;;22.30;60.72;98714.34;4344824;33;33186;-85
2023/06/11 00:13:50;;;;;;;11.38;8.57;;;;;;;22.37;61.26;98715.78;4345027;33;33895;-85
2023/06/11 00:16:17;;;;;;;9.82;8.70;;;;;;;22.34;61.78;98719.41;4332181;33;34201;-87
2023/06/11 00:18:46;;;;;;;13.55;8.95;;;;;;;22.37;61.68;98720.22;4346032;33;33737;-84
2023/06/11 00:21:14;;;;;;;12.45;9.13;;;;;;;22.41;61.44;98722.66;4332592;33;33662;-90
2023/06/11 00:23:41;;;;;;;11.00;8.80;;;;;;;22.33;61.40;98725.63;4332895;33;33982;-85
2023/06/11 00:26:10;;;;;;;13.57;9.23;;;;;;;22.49;61.42;98725.81;4345309;33;34873;-86
2023/06/11 00:28:38;;;;;;;13.70;8.82;;;;;;;22.32;62.00;98726.56;4332637;33;33752;-84
2023/06/11 00:31:05;;;;;;;10.50;8.77;;;;;;;22.43;61.54;98722.63;4345508;33;33301;-86
2023/06/11 00:33:33;;;;;;;11.12;8.48;;;;;;;22.35;61.66;98725.56;4346149;33;34098;-84
2023/06/11 00:36:02;;;;;;;11.68;8.85;;;;;;;22.44;61.76;98729.59;4344699;33;34099;-84
2023/06/11 02:13:13;;;;;;;11.43;7.53;;;;;;;21.62;58.87;98739.91;5215643;27;20071;31
2023/06/11 02:15:41;;;;;;;9.90;7.10;;;;;;;21.60;58.63;98733.88;4343715;33;33893;-89
2023/06/11 02:18:09;;;;;;;14.80;8.75;;;;;;;21.49;59.24;98743.97;4344251;32;34051;-89
2023/06/11 02:20:37;;;;;;;11.43;7.95;;;;;;;21.46;59.10;98739.66;4345253;33;33966;-89
2023/06/11 02:23:04;;;;;;;12.65;8.23;;;;;;;21.61;58.88;98743.50;4357062;32;34077;-89
2023/06/11 02:25:32;;;;;;;12.43;7.50;;;;;;;21.45;60.02;98755.56;4346878;33;33686;-89
2023/06/11 02:28:00;;;;;;;11.90;7.82;;;;;;;21.47;59.13;98743.16;4353493;32;34948;-89
2023/06/11 02:30:28;;;;;;;12.37;8.30;;;;;;;21.64;58.72;98740.75;4348547;32;34778;-89
2023/06/11 02:32:55;;;;;;;12.48;7.72;;;;;;;21.51;58.84;98742.97;4346823;32;34363;-89
2023/06/11 02:35:24;;;;;;;11.65;7.70;;;;;;;21.59;58.45;98746.19;4346910;33;33079;-88
2023/06/11 02:37:51;;;;;;;11.63;8.52;;;;;;;21.64;58.77;98742.53;4363650;32;33230;-89
2023/06/11 02:40:19;;;;;;;9.63;7.22;;;;;;;21.58;59.21;98741.81;4348178;32;33661;-89
2023/06/11 02:42:46;;;;;;;9.15;7.40;;;;;;;21.72;58.94;98737.78;4361617;32;33126;-88
2023/06/11 02:45:14;;;;;;;9.90;7.22;;;;;;;21.61;58.13;98735.56;4361647;32;34089;-89
2023/06/11 02:47:42;;;;;;;9.80;7.47;;;;;;;21.45;59.22;98739.72;4356045;32;34653;-89
2023/06/11 02:50:09;;;;;;;11.55;7.65;;;;;;;21.40;59.13;98733.75;4346738;33;33901;-89
2023/06/11 02:52:37;;;;;;;9.10;6.68;;;;;;;21.34;59.17;98741.00;4346755;33;33665;-89
2023/06/11 02:55:05;;;;;;;9.90;6.87;;;;;;;21.44;58.75;98735.34;4340124;32;34788;-89
2023/06/11 02:57:32;;;;;;;9.80;7.43;;;;;;;21.23;59.14;98729.94;4361295;32;35055;-88
2023/06/11 03:00:00;;;;;;;11.05;7.32;;;;;;;21.44;58.38;98724.81;4361315;32;34217;-89
2023/06/11 03:02:28;;;;;;;9.85;7.10;;;;;;;21.17;58.70;98732.81;4361735;32;33795;-89
2023/06/11 03:04:56;;;;;;;9.68;7.60;;;;;;;21.40;57.89;98734.59;4355582;32;33572;-89
2023/06/11 03:07:23;;;;;;;13.48;6.50;;;;;;;21.19;59.06;98730.97;4346648;33;34963;-89
2023/06/11 03:09:51;;;;;;;9.20;7.10;;;;;;;21.01;58.77;98736.94;4346489;33;34109;-89
2023/06/11 03:12:20;;;;;;;9.77;6.37;;;;;;;21.01;59.18;98736.94;4346338;33;33324;-88
2023/06/11 03:14:47;;;;;;;10.00;6.50;;;;;;;21.14;58.63;98744.34;4345288;33;34578;-88
2023/06/11 03:17:15;;;;;;;7.60;6.80;;;;;;;21.28;58.70;98735.03;4346692;33;34066;-89
2023/06/11 03:19:43;;;;;;;9.50;6.05;;;;;;;21.22;58.36;98740.56;4346614;33;33944;-89
2023/06/11 03:22:10;;;;;;;8.45;6.90;;;;;;;21.05;58.63;98739.38;4346724;33;33208;-89
2023/06/11 03:24:38;;;;;;;9.63;6.70;;;;;;;21.00;58.75;98741.34;4346192;33;33614;-89
2023/06/11 03:27:07;;;;;;;8.93;7.28;;;;;;;20.93;59.49;98744.25;4346121;33;34617;-89
2023/06/11 03:29:35;;;;;;;8.43;7.03;;;;;;;20.72;60.26;98751.13;4333071;33;33702;-89
2023/06/11 03:32:02;;;;;;;10.57;6.93;;;;;;;20.81;60.17;98750.84;4346376;33;34265;-90
2023/06/11 03:34:30;;;;;;;10.07;6.78;;;;;;;20.74;59.45;98746.69;4345048;33;33604;-89
2023/06/11 03:36:58;;;;;;;11.15;6.28;;;;;;;20.39;61.33;98743.47;4346710;33;34097;-88
2023/06/11 03:39:26;;;;;;;9.50;7.05;;;;;;;20.84;59.51;98751.59;4346495;33;33935;-89
2023/06/11 03:41:55;;;;;;;8.52;6.90;;;;;;;20.94;59.44;98745.97;4345114;33;33575;-88
2023/06/11 03:44:23;;;;;;;8.57;6.35;;;;;;;20.74;60.35;98755.44;4345690;33;33589;-91
2023/06/11 03:46:50;;;;;;;8.88;6.07;;;;;;;20.98;58.78;98758.13;4346211;33;34022;-88
2023/06/11 03:49:19;;;;;;;9.48;6.40;;;;;;;20.99;58.45;98746.69;4346957;33;33935;-88
2023/06/11 03:51:47;;;;;;;7.87;6.40;;;;;;;20.89;59.79;98760.19;4346578;33;33347;-89
2023/06/11 03:54:14;;;;;;;10.18;6.50;;;;;;;21.16;57.88;98753.97;4345778;33;33545;-89
2023/06/11 03:56:42;;;;;;;11.55;6.55;;;;;;;21.08;59.09;98751.59;4345318;32;35111;-88
2023/06/11 03:59:10;;;;;;;8.90;6.32;;;;;;;21.04;58.81;98755.28;4345312;33;34220;-89
2023/06/11 04:01:37;;;;;;;7.97;5.97;;;;;;;21.21;58.66;98755.50;4345681;33;34298;-87
2023/06/11 04:04:05;;;;;;;8.63;6.75;;;;;;;21.18;58.06;98763.53;4332389;33;33547;-88
2023/06/11 04:06:37;;;;;;;8.63;6.32;;;;;;;21.11;57.89;98760.25;4332573;33;35013;-88
2023/06/11 04:09:06;;;;;;;7.43;5.60;;;;;;;21.30;58.00;98764.88;4332235;33;34054;-88
2023/06/11 04:11:34;;;;;;;8.55;6.35;;;;;;;21.61;57.61;98761.94;4346225;33;32288;-88
2023/06/11 04:14:02;;;;;;;13.20;6.28;;;;;;;21.59;57.94;98771.69;4345737;33;33941;-88
2023/06/11 04:16:30;;;;;;;10.18;5.85;;;;;;;21.67;58.58;98764.38;4332802;33;33882;-88
2023/06/11 04:18:58;;;;;;;7.87;5.85;;;;;;;21.60;59.05;98776.06;4345850;33;33544;-88
2023/06/11 04:21:25;;;;;;;9.10;5.60;;;;;;;21.77;58.42;98772.75;4346248;33;33507;-88
2023/06/11 04:23:53;;;;;;;10.10;6.03;;;;;;;21.85;58.84;98771.53;4332490;33;34632;-88
2023/06/11 04:26:23;;;;;;;9.02;6.25;;;;;;;21.93;58.00;98765.09;4332881;33;33751;-88
2023/06/11 04:28:52;;;;;;;9.30;6.18;;;;;;;21.81;58.98;98766.44;4332307;33;34183;-88
2023/06/11 04:31:21;;;;;;;10.02;5.60;;;;;;;21.94;57.97;98769.47;4333007;33;34623;-88
2023/06/11 04:33:50;;;;;;;8.35;5.93;;;;;;;21.95;57.05;98776.47;4346024;33;34682;-88
2023/06/11 04:36:24;;;;;;;8.13;5.60;;;;;;;21.82;57.11;98773.44;4346167;33;34267;-88
2023/06/11 04:38:53;;;;;;;7.15;5.25;;;;;;;21.94;56.59;98772.13;4345972;33;34061;-88
2023/06/11 04:41:23;;;;;;;8.77;5.80;;;;;;;22.10;56.86;98778.50;4332638;33;33488;-88
2023/06/11 04:43:52;;;;;;;8.52;6.03;;;;;;;22.02;57.95;98781.44;4345837;33;33485;-88
2023/06/11 04:46:20;;;;;;;7.12;5.80;;;;;;;22.16;57.76;98783.56;4346308;33;34694;-88
2023/06/11 04:48:50;;;;;;;8.63;5.85;;;;;;;22.21;58.17;98786.03;4345700;33;34566;-88
2023/06/11 04:51:20;;;;;;;7.57;5.15;;;;;;;22.23;58.55;98787.66;4331320;33;33011;-88
2023/06/11 04:53:52;;;;;;;8.27;5.70;;;;;;;21.99;59.79;98783.34;4345958;33;34114;-88
2023/06/11 04:56:20;;;;;;;10.85;5.97;;;;;;;22.11;56.62;98774.94;4332237;33;33440;-88
2023/06/11 04:58:49;;;;;;;7.85;5.30;;;;;;;22.04;58.20;98776.94;4345822;33;34615;-88
2023/06/11 05:01:16;;;;;;;9.82;5.15;;;;;;;21.95;56.90;98771.19;4346053;33;34279;-88
2023/06/11 05:03:44;;;;;;;8.82;5.43;;;;;;;22.09;57.78;98772.38;4345867;33;34751;-88
2023/06/11 05:06:21;;;;;;;8.27;5.78;;;;;;;22.15;58.53;98771.28;4345493;33;34013;-88
2023/06/11 05:08:52;;;;;;;9.75;5.40;;;;;;;22.24;58.83;98777.97;4345552;33;34631;-87
2023/06/11 05:11:20;;;;;;;8.32;5.30;;;;;;;22.09;58.20;98782.06;4345773;33;34280;-88
2023/06/11 05:13:48;;;;;;;8.68;5.15;;;;;;;22.03;55.88;98775.22;4345549;33;33815;-88
2023/06/11 05:16:21;;;;;;;11.60;5.32;;;;;;;22.27;55.86;98781.31;4331981;33;32801;-88
2023/06/11 05:18:49;;;;;;;8.63;5.85;;;;;;;22.61;54.82;98777.28;4345878;33;33751;-88
2023/06/11 05:21:18;;;;;;;9.35;5.32;;;;;;;22.06;56.14;98779.53;4345960;33;33733;-89
2023/06/11 05:23:45;;;;;;;7.82;5.32;;;;;;;21.58;58.22;98786.66;4345678;33;33757;-88
2023/06/11 05:26:13;;;;;;;9.68;5.72;;;;;;;21.12;57.83;98783.06;4332031;33;33622;-88
2023/06/11 05:28:41;;;;;;;7.55;5.60;;;;;;;21.76;56.92;98778.97;4346273;33;34470;-88
2023/06/11 05:31:12;;;;;;;8.05;4.82;;;;;;;21.83;57.14;98780.47;4345067;33;33464;-88
2023/06/11 05:33:40;;;;;;;11.60;5.35;;;;;;;21.85;58.14;98779.44;4332506;33;35054;-88
2023/06/11 05:36:08;;;;;;;8.23;5.57;;;;;;;22.08;56.39;98782.97;4345612;33;35101;-86
2023/06/11 05:38:37;;;;;;;7.72;5.85;;;;;;;22.12;56.80;98787.19;4345298;33;33430;-86
2023/06/11 05:41:05;;;;;;;9.10;5.43;;;;;;;22.23;56.38;98785.00;4331910;33;34212;-87
2023/06/11 05:43:32;;;;;;;8.55;5.75;;;;;;;22.21;56.62;98786.88;4345714;33;34579;-88
2023/06/11 05:46:01;;;;;;;8.30;5.30;;;;;;;22.62;54.84;98786.94;4345365;33;34147;-87
2023/06/11 05:48:30;;;;;;;10.90;5.30;;;;;;;22.44;56.02;98793.00;4345614;33;34398;-87
2023/06/11 05:50:58;;;;;;;6.37;4.90;;;;;;;22.46;54.75;98785.84;4345613;33;34146;-88
2023/06/11 05:53:25;;;;;;;9.05;5.45;;;;;;;21.99;56.74;98789.47;4345540;33;34121;-87
2023/06/11 05:55:53;;;;;;;8.63;5.40;;;;;;;22.67;56.24;98798.16;4345229;33;34081;-88
2023/06/11 05:58:22;;;;;;;7.90;5.25;;;;;;;22.78;53.74;98795.06;4344814;33;34895;-87
2023/06/11 06:00:51;;;;;;;7.55;5.30;;;;;;;22.98;53.35;98799.53;4345665;33;33305;-88
2023/06/11 06:03:19;;;;;;;7.62;5.15;;;;;;;22.82;53.16;98788.72;4345678;33;33830;-86
2023/06/11 06:05:47;;;;;;;8.93;5.30;;;;;;;22.70;53.37;98792.75;4345596;33;35154;-88
2023/06/11 06:08:15;;;;;;;10.82;5.43;;;;;;;22.87;54.58;98807.03;4345500;33;34427;-87
2023/06/11 06:10:43;;;;;;;7.85;5.22;;;;;;;22.75;54.01;98803.97;4345495;33;33311;-87
2023/06/11 06:13:10;;;;;;;7.18;4.70;;;;;;;22.71;52.81;98802.41;4345116;33;33779;-88
2023/06/11 06:15:38;;;;;;;8.30;5.45;;;;;;;22.73;53.63;98797.94;4345242;33;34117;-86
2023/06/11 06:18:06;;;;;;;7.57;5.20;;;;;;;22.22;55.20;98815.00;4344901;33;33672;-88
2023/06/11 06:20:34;;;;;;;7.72;4.70;;;;;;;22.50;54.73;98809.47;4339894;33;177186;-88
2023/06/11 06:23:02;;;;;;;9.77;5.18;;;;;;;22.54;54.64;98807.53;4344850;33;33444;-89
2023/06/11 06:25:31;;;;;;;8.20;5.30;;;;;;;22.35;55.25;98802.16;4345090;33;34003;-88
2023/06/11 06:27:59;;;;;;;9.45;5.37;;;;;;;22.82;55.61;98802.81;4342838;33;34047;-87
2023/06/11 06:30:27;;;;;;;7.15;5.28;;;;;;;22.76;53.99;98804.84;4345037;33;33121;-87
2023/06/11 06:32:58;;;;;;;8.98;5.37;;;;;;;22.79;54.82;98805.56;4344910;33;33881;-87
2023/06/11 06:35:30;;;;;;;7.53;5.68;;;;;;;22.74;54.77;98812.84;4344290;33;34291;-88
2023/06/11 06:38:01;;;;;;;8.90;5.30;;;;;;;22.89;55.22;98818.41;4344830;33;33655;-87
2023/06/11 06:40:29;;;;;;;7.90;5.22;;;;;;;23.10;55.53;98814.84;4345031;33;33883;-88
2023/06/11 06:42:57;;;;;;;9.55;5.95;;;;;;;23.28;55.70;98814.03;4344163;33;33989;-87
2023/06/11 06:45:26;;;;;;;9.23;5.93;;;;;;;23.41;55.76;98819.66;4343905;33;34565;-88
2023/06/11 06:47:54;;;;;;;8.07;5.57;;;;;;;23.36;56.95;98821.63;4336661;33;34017;-88
2023/06/11 06:50:22;;;;;;;7.95;5.22;;;;;;;23.44;53.89;98814.19;4344396;33;33222;-88
2023/06/11 06:52:50;;;;;;;8.20;5.12;;;;;;;23.54;54.79;98819.94;4344356;33;33965;-88
2023/06/11 06:55:17;;;;;;;7.68;5.25;;;;;;;23.38;54.43;98829.50;4344106;33;34047;-88
2023/06/11 06:57:45;;;;;;;10.82;6.00;;;;;;;23.54;54.24;98819.94;4344453;33;33875;-88
2023/06/11 07:00:14;;;;;;;9.65;5.05;;;;;;;23.33;52.95;98826.19;4343923;33;33464;-88
2023/06/11 07:02:42;;;;;;;8.13;5.22;;;;;;;23.41;53.17;98827.59;4344134;33;34617;-88
2023/06/11 07:05:12;;;;;;;8.05;4.97;;;;;;;23.70;53.58;98828.94;4330514;33;34958;-88
2023/06/11 07:07:40;;;;;;;8.38;5.00;;;;;;;23.95;52.24;98830.44;4344137;33;34822;-87
2023/06/11 07:10:10;;;;;;;7.40;4.80;;;;;;;24.07;53.11;98829.84;4346029;33;33110;-88
2023/06/11 07:12:38;;;;;;;10.40;5.62;;;;;;;23.64;53.00;98823.91;4346514;33;33639;-88
2023/06/11 07:15:07;;;;;;;9.48;4.75;;;;;;;23.72;51.58;98828.88;4345752;33;34260;-88
2023/06/11 07:17:35;;;;;;;7.10;5.35;;;;;;;23.83;52.48;98826.59;4346064;33;33769;-88
2023/06/11 07:20:04;;;;;;;7.53;4.95;;;;;;;23.64;52.45;98823.91;4346183;33;34198;-88
2023/06/11 07:22:32;;;;;;;6.55;4.50;;;;;;;23.71;51.54;98822.69;4346144;33;34015;-88
2023/06/11 07:25:00;;;;;;;7.40;4.78;;;;;;;24.05;51.96;98815.81;4320267;33;34293;-88
2023/06/11 07:27:28;;;;;;;7.82;5.10;;;;;;;24.16;50.39;98823.25;4346467;33;33887;-88
2023/06/11 07:29:56;;;;;;;8.38;4.68;;;;;;;23.68;51.73;98822.00;4332870;33;33407;-87
2023/06/11 07:32:23;;;;;;;6.93;4.40;;;;;;;23.75;51.01;98823.41;4346080;33;34716;-87
2023/06/11 07:34:51;;;;;;;7.90;4.87;;;;;;;23.74;51.03;98817.25;4345621;33;34268;-89
2023/06/11 07:37:19;;;;;;;10.20;4.95;;;;;;;23.60;53.45;98827.63;4346258;33;33984;-88
2023/06/11 07:39:46;;;;;;;8.00;4.60;;;;;;;23.34;51.81;98830.59;4346281;33;33488;-88
2023/06/11 07:42:15;;;;;;;8.65;5.15;;;;;;;23.70;52.95;98825.44;4345760;33;33632;-87
2023/06/11 07:44:43;;;;;;;7.37;4.72;;;;;;;23.86;51.05;98817.63;4346151;33;34142;-90
2023/06/11 07:47:11;;;;;;;7.50;4.62;;;;;;;23.80;51.08;98834.66;4345577;33;33998;-87
2023/06/11 07:49:39;;;;;;;9.30;5.20;;;;;;;24.09;50.82;98822.69;4346206;33;33687;-90
2023/06/11 07:52:07;;;;;;;8.10;5.32;;;;;;;24.08;51.01;98825.41;4353324;32;34643;-91
2023/06/11 07:54:37;;;;;;;9.43;4.85;;;;;;;24.04;52.23;98833.50;4352846;32;33869;-88
2023/06/11 07:57:06;;;;;;;8.32;4.87;;;;;;;24.00;51.61;98831.94;4345327;33;34919;-89
2023/06/11 07:59:37;;;;;;;7.18;4.53;;;;;;;24.37;50.79;98835.47;4345842;33;33532;-89
2023/06/11 08:02:06;;;;;;;7.12;4.80;;;;;;;24.49;49.48;98842.84;4345616;33;34153;-88
2023/06/11 08:04:34;;;;;;;6.32;4.40;;;;;;;24.74;50.63;98839.00;4346287;33;34198;-89
2023/06/11 08:07:01;;;;;;;7.00;4.82;;;;;;;24.74;48.89;98836.34;4345614;33;34060;-90
2023/06/11 08:09:29;;;;;;;7.87;4.82;;;;;;;25.26;47.77;98843.44;4345538;33;34344;-88
2023/06/11 08:12:00;;;;;;;7.43;4.90;;;;;;;25.05;46.98;98851.53;4345742;33;33593;-89
2023/06/11 08:14:27;;;;;;;7.97;4.80;;;;;;;24.31;48.41;98853.44;4344751;33;34844;-88
2023/06/11 08:16:55;;;;;;;7.78;4.60;;;;;;;24.47;49.58;98847.38;4336921;33;34763;-87
2023/06/11 08:19:22;;;;;;;7.15;4.50;;;;;;;25.12;50.73;98845.03;4339484;33;34367;-88
2023/06/11 08:21:50;;;;;;;6.93;4.75;;;;;;;24.90;51.03;98847.03;4330794;33;34825;-89
2023/06/11 08:24:18;;;;;;;8.82;4.80;;;;;;;25.20;48.82;98841.97;4331094;33;35065;-88
2023/06/11 08:26:46;;;;;;;8.77;5.10;;;;;;;25.19;50.43;98849.06;4331362;33;34296;-88
2023/06/11 08:29:15;;;;;;;7.85;4.68;;;;;;;25.03;49.08;98845.44;4317925;33;33563;-89
2023/06/11 08:31:43;;;;;;;7.28;4.30;;;;;;;25.34;47.60;98841.22;4331264;33;34024;-89
2023/06/11 08:34:10;;;;;;;18.33;13.88;;;;;;;25.30;47.87;98850.28;4330879;33;34057;-92
2023/06/11 08:36:40;;;;;;;7.72;4.55;;;;;;;25.34;49.13;98851.84;4329331;33;33141;-89
2023/06/11 08:39:08;;;;;;;9.25;4.87;;;;;;;25.43;48.82;98851.38;4331329;33;33245;-90
2023/06/11 08:41:36;;;;;;;8.43;5.22;;;;;;;25.02;48.00;98846.38;4329520;33;34067;-91
2023/06/11 08:44:04;;;;;;;8.13;5.37;;;;;;;25.26;47.35;98846.06;4338161;33;34805;-91
2023/06/11 08:46:35;;;;;;;13.52;9.18;;;;;;;25.04;49.85;98852.47;4339378;33;33601;-89
2023/06/11 08:49:07;;;;;;;8.38;4.78;;;;;;;25.45;48.60;98860.09;4317208;33;33614;-90
2023/06/11 08:51:39;;;;;;;7.55;4.95;;;;;;;25.19;47.85;98848.19;4330256;33;33809;-90
2023/06/11 08:54:08;;;;;;;13.30;6.00;;;;;;;24.59;48.83;98853.00;4331696;33;34286;-90
2023/06/11 08:56:36;;;;;;;10.93;4.95;;;;;;;25.06;51.05;98858.56;4330971;33;34508;-90
2023/06/11 08:59:03;;;;;;;9.73;4.90;;;;;;;25.29;48.04;98851.22;4331104;33;33530;-89
2023/06/11 09:01:31;;;;;;;7.20;5.05;;;;;;;24.95;48.84;98855.59;4330622;33;33974;-90
2023/06/11 09:03:59;;;;;;;8.63;5.00;;;;;;;25.11;48.18;98845.94;4330415;33;35031;-89
2023/06/11 09:06:28;;;;;;;8.48;5.25;;;;;;;24.81;51.60;98845.66;4330747;33;34003;-89
2023/06/11 09:09:00;;;;;;;11.43;7.82;;;;;;;24.91;51.35;98848.72;4317221;33;34616;-88
2023/06/11 09:11:35;;;;;;;7.50;5.05;;;;;;;24.94;51.72;98851.22;4330861;33;33377;-88
2023/06/11 09:14:04;;;;;;;7.07;4.65;;;;;;;24.80;51.13;98851.06;4335494;33;34026;-89
2023/06/11 09:16:39;;;;;;;10.07;5.57;;;;;;;24.79;49.73;98855.50;4345817;33;33601;-89
2023/06/11 09:19:17;;;;;;;11.55;6.28;;;;;;;25.22;51.39;98848.88;4345282;33;33660;-88
2023/06/11 09:21:52;;;;;;;9.70;5.30;;;;;;;25.64;49.21;98849.34;4331646;33;33489;-89
2023/06/11 09:24:20;;;;;;;9.80;5.15;;;;;;;25.65;48.76;98841.31;4345823;33;34292;-89
2023/06/11 09:26:51;;;;;;;8.55;4.70;;;;;;;25.39;47.39;98855.13;4345578;33;33623;-91
2023/06/11 09:29:19;;;;;;;9.23;4.25;;;;;;;25.61;47.26;98846.84;4330941;33;34139;-88
2023/06/11 09:31:47;;;;;;;7.65;4.68;;;;;;;25.36;48.28;98856.13;4344025;33;34013;-89
2023/06/11 09:34:22;;;;;;;10.65;7.80;;;;;;;25.59;47.51;98851.41;4344897;33;34284;-89
2023/06/11 09:36:52;;;;;;;17.65;9.88;;;;;;;24.95;48.66;98869.69;4332867;33;33878;-87
2023/06/11 09:39:19;;;;;;;8.65;5.32;;;;;;;25.24;47.94;98860.28;4345385;33;33611;-89
2023/06/11 09:41:50;;;;;;;10.05;5.75;;;;;;;25.18;48.72;98867.69;4344895;33;33961;-88
2023/06/11 09:44:18;;;;;;;12.55;7.10;;;;;;;25.12;48.00;98858.28;4354293;32;34475;-88
2023/06/11 09:46:49;;;;;;;8.07;4.82;;;;;;;25.20;48.81;98861.38;4352212;32;34477;-88
2023/06/11 09:49:17;;;;;;;9.57;5.03;;;;;;;25.62;46.99;98846.78;4331739;33;33265;-89
2023/06/11 09:51:44;;;;;;;10.90;7.10;;;;;;;25.55;48.01;98860.47;4344991;33;34965;-90
2023/06/11 09:54:15;;;;;;;8.57;6.62;;;;;;;25.15;48.48;98863.41;4339977;32;33672;-91
2023/06/11 09:56:43;;;;;;;11.82;5.97;;;;;;;24.75;48.92;98853.94;4356218;32;34282;-90
2023/06/11 09:59:14;;;;;;;8.65;4.90;;;;;;;24.87;49.43;98853.31;4338203;33;33410;-91
2023/06/11 10:01:47;;;;;;;6.43;4.53;;;;;;;25.67;49.16;98850.03;4344658;33;33743;-89
2023/06/11 10:04:15;;;;;;;7.57;4.00;;;;;;;25.82;47.36;98847.53;4344760;33;34016;-89
2023/06/11 10:06:46;;;;;;;5.70;3.80;;;;;;;25.68;48.63;98850.91;4345476;33;33963;-90
2023/06/11 10:09:14;;;;;;;8.75;6.25;;;;;;;26.00;47.56;98849.19;4344935;33;33212;-90
2023/06/11 10:11:43;;;;;;;9.52;5.05;;;;;;;26.00;48.57;98846.53;4331428;33;33756;-90
2023/06/11 10:14:12;;;;;;;10.73;4.68;;;;;;;25.83;48.25;98855.41;4344999;33;33977;-90
2023/06/11 10:16:39;;;;;;;5.50;3.87;;;;;;;26.04;45.33;98853.38;4344902;33;34050;-88
2023/06/11 10:19:09;;;;;;;7.40;4.40;;;;;;;25.99;44.94;98850.13;4331984;33;34568;-89
2023/06/11 10:21:43;;;;;;;6.20;4.55;;;;;;;26.29;45.99;98836.94;4329229;33;33815;-90
2023/06/11 10:24:21;;;;;;;7.82;4.32;;;;;;;26.85;44.95;98845.25;4330021;33;35177;-92
2023/06/11 10:27:12;;;;;;;6.80;3.90;;;;;;;26.71;46.79;98851.38;4329857;33;34807;-91
2023/06/11 10:29:42;;;;;;;8.60;4.60;;;;;;;26.70;45.00;98847.00;4330219;33;34585;-90
2023/06/11 10:32:22;;;;;;;9.25;4.68;;;;;;;27.07;45.60;98845.69;4344296;33;33387;-90
2023/06/11 10:34:57;;;;;;;7.55;4.72;;;;;;;26.39;45.63;98838.09;4336795;33;34295;-93
2023/06/11 10:37:37;;;;;;;6.55;3.87;;;;;;;26.80;45.80;98834.03;4329781;33;34750;-90
2023/06/11 10:40:06;;;;;;;7.05;4.70;;;;;;;26.91;44.44;98845.75;4337602;33;34183;-93
2023/06/11 10:42:36;;;;;;;6.30;4.53;;;;;;;26.84;44.62;98841.72;4344799;33;34082;-92
2023/06/11 10:45:11;;;;;;;7.57;4.35;;;;;;;26.55;45.87;98840.75;4346737;33;35767;-92
2023/06/11 10:47:42;;;;;;;8.55;4.90;;;;;;;26.41;45.32;98832.72;4346745;33;34018;-90
2023/06/11 10:50:12;;;;;;;5.87;4.25;;;;;;;26.52;45.99;98832.09;4346731;33;32979;-91
2023/06/11 10:52:49;;;;;;;7.90;4.45;;;;;;;26.80;45.25;98844.66;4333297;33;33606;-93
2023/06/11 10:55:17;;;;;;;7.05;3.90;;;;;;;26.91;44.56;98835.09;4321122;33;34112;-90
2023/06/11 10:57:45;;;;;;;9.40;3.90;;;;;;;26.57;45.00;98836.22;4331898;33;33815;-93
2023/06/11 11:00:13;;;;;;;7.12;4.70;;;;;;;26.09;46.12;98835.37;4330544;33;33105;-92
2023/06/11 11:02:41;;;;;;;7.05;4.55;;;;;;;26.01;47.31;98836.75;4330486;33;33979;-92
2023/06/11 11:05:11;;;;;;;6.55;3.65;;;;;;;26.28;45.99;98837.00;4335031;33;34591;-90
2023/06/11 11:07:39;;;;;;;8.68;4.15;;;;;;;26.15;45.52;98827.06;4331360;33;34330;-93
2023/06/11 11:10:07;;;;;;;7.15;4.32;;;;;;;26.05;46.57;98828.53;4331242;33;33612;-92
2023/06/11 11:12:42;;;;;;;6.20;3.75;;;;;;;26.48;45.38;98831.47;4331328;33;33801;-93
2023/06/11 11:15:11;;;;;;;5.87;4.00;;;;;;;26.19;46.32;98836.59;4329461;33;33838;-91
2023/06/11 11:17:40;;;;;;;9.60;4.20;;;;;;;26.21;46.45;98833.81;4344340;32;33485;-86
2023/06/11 11:20:13;;;;;;;8.77;4.35;;;;;;;26.28;46.83;98835.19;4344005;32;33276;-90
2023/06/11 11:22:40;;;;;;;7.35;4.07;;;;;;;26.70;45.65;98831.03;4333653;33;34739;-93
2023/06/11 11:25:08;;;;;;;8.90;4.72;;;;;;;26.50;45.29;98826.87;4346321;33;34514;-94
2023/06/11 11:27:37;;;;;;;11.57;4.10;;;;;;;26.81;45.48;98822.44;4346069;33;34525;-92
2023/06/11 11:30:06;;;;;;;6.43;3.70;;;;;;;26.71;46.47;98821.25;4345636;32;33090;-88
2023/06/11 11:32:34;;;;;;;6.75;4.40;;;;;;;26.81;45.68;98830.41;4343541;33;34386;-87
2023/06/11 11:35:04;;;;;;;7.05;3.47;;;;;;;26.97;46.75;98820.56;4346243;33;34728;-96
2023/06/11 11:37:33;;;;;;;6.53;3.85;;;;;;;26.69;45.84;98830.19;4343483;33;34543;-93
2023/06/11 11:40:06;;;;;;;6.97;4.32;;;;;;;26.80;46.17;98831.38;4351743;32;32717;-93
2023/06/11 11:42:47;;;;;;;6.55;4.18;;;;;;;26.79;45.08;98825.19;4354893;32;34929;-88
2023/06/11 11:45:15;;;;;;;6.60;3.62;;;;;;;26.12;47.74;98821.94;4360646;32;34172;-92
2023/06/11 11:47:52;;;;;;;7.03;4.10;;;;;;;26.39;46.95;98821.31;4346206;32;33565;-92
2023/06/11 11:50:22;;;;;;;6.60;3.90;;;;;;;26.53;45.89;98815.22;4320954;33;33062;-88
2023/06/11 11:53:02;;;;;;;7.37;3.87;;;;;;;26.65;45.46;98822.47;4332511;32;33842;-90
2023/06/11 11:55:35;;;;;;;7.03;3.62;;;;;;;26.73;47.63;98822.88;4343746;33;34825;-90
2023/06/11 11:58:23;;;;;;;5.75;3.70;;;;;;;26.97;45.46;98817.91;4345585;33;34803;-91
2023/06/11 12:00:56;;;;;;;7.03;4.10;;;;;;;26.80;44.69;98810.94;4332450;33;34352;-90
2023/06/11 12:03:24;;;;;;;6.00;4.10;;;;;;;26.67;46.44;98808.16;4346418;32;33761;-91
2023/06/11 12:06:06;;;;;;;10.35;4.40;;;;;;;26.32;47.92;98818.13;4320023;33;33188;-96
2023/06/11 12:08:35;;;;;;;6.97;4.20;;;;;;;25.99;48.64;98820.03;4333767;33;33709;-88
2023/06/11 12:11:06;;;;;;;7.18;4.28;;;;;;;26.13;48.74;98820.97;4333884;33;34790;-92
2023/06/11 12:13:34;;;;;;;6.32;3.80;;;;;;;25.79;47.84;98826.44;4345591;33;34007;-89
2023/06/11 12:16:03;;;;;;;6.95;4.00;;;;;;;25.66;48.18;98813.81;4331501;32;34293;-88
2023/06/11 12:18:32;;;;;;;6.37;4.05;;;;;;;26.00;50.70;98812.00;4346838;32;33919;-88
2023/06/11 12:21:00;;;;;;;7.25;3.53;;;;;;;26.23;49.80;98815.16;4345832;33;33228;-88
2023/06/11 12:23:28;;;;;;;6.10;3.70;;;;;;;26.37;47.36;98826.72;4345372;33;34591;-88
2023/06/11 12:25:55;;;;;;;8.23;3.60;;;;;;;25.74;49.35;98816.06;4345800;33;35112;-91
2023/06/11 12:28:23;;;;;;;6.90;4.15;;;;;;;25.52;49.99;98823.47;4332623;32;34000;-88
2023/06/11 12:30:51;;;;;;;8.80;4.85;;;;;;;25.67;48.96;98822.63;4345518;33;34254;-90
2023/06/11 12:33:18;;;;;;;11.30;5.18;;;;;;;25.61;52.34;98831.81;4345117;33;33840;-89
2023/06/11 12:35:47;;;;;;;8.10;5.05;;;;;;;25.55;55.49;98823.31;4345968;33;35110;-87
2023/06/11 12:38:15;;;;;;;8.32;5.32;;;;;;;25.96;53.82;98819.28;4346024;33;33681;-90
2023/06/11 12:40:42;;;;;;;11.18;5.57;;;;;;;26.08;55.08;98824.84;4349489;32;34398;-88
2023/06/11 12:43:10;;;;;;;9.52;5.30;;;;;;;25.99;54.09;98820.91;4342774;33;34699;-90
2023/06/11 12:45:38;;;;;;;8.38;5.53;;;;;;;25.82;58.53;98834.25;4342838;32;34224;-87
2023/06/11 12:48:05;;;;;;;7.53;5.20;;;;;;;25.82;57.11;98826.28;4345406;33;33828;-88
2023/06/11 12:50:33;;;;;;;7.80;4.35;;;;;;;25.85;57.42;98826.97;4345310;32;33508;-90
2023/06/11 12:53:02;;;;;;;9.05;4.53;;;;;;;25.42;55.92;98826.63;4330851;33;34573;-87
2023/06/11 12:55:30;;;;;;;7.57;5.05;;;;;;;25.29;56.23;98825.56;4354250;32;33869;-86
2023/06/11 12:57:58;;;;;;;8.95;4.97;;;;;;;25.17;57.36;98828.84;4338683;33;34018;-88
2023/06/11 13:00:29;;;;;;;6.85;4.75;;;;;;;25.02;57.88;98829.63;4331895;33;34166;-91
2023/06/11 13:02:58;;;;;;;7.62;5.35;;;;;;;24.48;55.81;98824.38;4320344;33;35164;-90
2023/06/11 13:05:26;;;;;;;7.35;5.18;;;;;;;24.77;57.15;98825.56;4345531;33;35205;-88
2023/06/11 13:07:54;;;;;;;6.62;4.75;;;;;;;24.99;57.77;98820.03;4344337;33;34498;-88
2023/06/11 13:10:23;;;;;;;9.25;4.40;;;;;;;25.29;57.00;98816.75;4343668;33;33249;-88
2023/06/11 13:12:54;;;;;;;8.32;4.80;;;;;;;24.74;61.02;98823.94;4354650;32;33977;-87
2023/06/11 13:15:22;;;;;;;6.40;4.50;;;;;;;25.02;55.61;98813.72;4357075;32;34820;-85